Nearby METAR Reports

KLNK - Lincoln, Nebraska, USA
Distance from station: WNW 8mi, 13km
Updated: Sat, 08-May-2021 8:54am CDT
Clear
Clear
 Wind from ESE
Wind: ESE 22 mph , 35 km/h, Gust: 29 mph , 46 km/h
Temperature: 61°F , 16°C
Dew Point: 37°F , 3°C
Humidity: 42%
Barometer: 29.83 inHg , 1010.2 hPa
Clouds: Clear
Visibility: 10 miles , 16 km
2021/05/08 13:54 KLNK 081354Z 12019G25KT 10SM CLR 16/03 A2983 RMK AO2 SLP098 T01560033
KAHQ - Wahoo, Nebraska, USA
Distance from station: N 31mi, 49km
Updated: Sat, 08-May-2021 8:35am CDT
Overcast
Overcast
 Wind from ESE
Wind: ESE 21 mph , 33 km/h, Gust: 26 mph , 43 km/h
Temperature: 55°F , 13°C
Dew Point: 32°F , 0°C
Humidity: 41%
Barometer: 29.87 inHg , 1011.5 hPa
Clouds: Overcast
Visibility: 10 miles , 16 km
Cloud details: Mostly Cloudy 4700 ft
Overcast 6000 ft
2021/05/08 13:35 KAHQ 081335Z AUTO 11018G23KT 10SM BKN047 OVC060 13/00 A2987 RMK AO2 T01280004
 
KBIE - Beatrice Municip, Nebraska, USA
Distance from station: S 36mi, 57km
Updated: Sat, 08-May-2021 8:35am CDT
Clear
Clear
 Wind from ESE
Wind: ESE 17 mph , 28 km/h, Gust: 22 mph , 35 km/h
Temperature: 61°F , 16°C
Dew Point: 50°F , 10°C
Humidity: 68%
Barometer: 29.80 inHg , 1009.1 hPa
Clouds: Clear
Visibility: 10 miles , 16 km
2021/05/08 13:35 KBIE 081335Z AUTO 12015G19KT 10SM CLR 16/10 A2980 RMK AO2 T01590100
KMLE - Omaha/Millard, Nebraska, USA
Distance from station: NE 39mi, 63km
Updated: Sat, 08-May-2021 8:35am CDT
Overcast
Overcast
 Wind from ESE
Wind: ESE 12 mph , 19 km/h, Gust: 22 mph , 35 km/h
Temperature: 54°F , 12°C
Dew Point: 34°F , 1°C
Humidity: 47%
Barometer: 29.89 inHg , 1012.2 hPa
Clouds: Overcast
Visibility: 10 miles , 16 km
Cloud details: Overcast 6000 ft
2021/05/08 13:35 KMLE 081335Z AUTO 12010G19KT 10SM OVC060 12/01 A2989 RMK AO2 T01230011
 
KPMV - Plattsmouth Muni, Nebraska, USA
Distance from station: ENE 39mi, 63km
Updated: Sat, 08-May-2021 8:35am CDT
Overcast
Overcast
 Wind from E
Wind: E 17 mph , 28 km/h, Gust: 23 mph , 37 km/h
Temperature: 54°F , 12°C
Dew Point: 34°F , 1°C
Humidity: 47%
Barometer: 29.89 inHg , 1012.2 hPa
Clouds: Overcast
Visibility: 10 miles , 16 km
Cloud details: Overcast 5000 ft
2021/05/08 13:35 KPMV 081335Z AUTO 10015G20KT 10SM OVC050 12/01 A2989 RMK AO2 T01230006
KAFK - Nebraska City, Nebraska, USA
Distance from station: ESE 43mi, 69km
Updated: Sat, 08-May-2021 8:35am CDT
Overcast
Overcast
 Wind from ESE
Wind: ESE 15 mph , 24 km/h, Gust: 20 mph , 31 km/h
Temperature: 54°F , 12°C
Dew Point: 37°F , 3°C
Humidity: 54%
Barometer: 29.88 inHg , 1011.9 hPa
Clouds: Overcast
Visibility: 10 miles , 16 km
Cloud details: Partly Cloudy 4100 ft
Overcast 5000 ft
2021/05/08 13:35 KAFK 081335Z AUTO 11013G17KT 10SM SCT041 OVC050 12/03 A2988 RMK AO2 T01170030
 
KOFF - Offutt Afb/Belle, Nebraska, USA
Distance from station: ENE 44mi, 70km
Updated: Sat, 08-May-2021 7:56am CDT
Overcast
Overcast
 Wind from ESE
Wind: ESE 10 mph , 17 km/h, Gust: 21 mph , 33 km/h
Temperature: 54°F , 12°C
Dew Point: 34°F , 1°C
Humidity: 47%
Barometer: 29.91 inHg , 1012.9 hPa
Clouds: Overcast
Visibility: 10 miles , 16 km
Cloud details: Overcast 5500 ft
2021/05/08 12:56 KOFF 081256Z 12009G18KT 10SM OVC055 12/01 A2991 RMK AO2A SLP123 ALSTG/SLP ESTMD WND DATA ESTMD T01160005 RVRNO $
KFET - Fremont Muni Arp, Nebraska, USA
Distance from station: N 46mi, 74km
Updated: Sat, 08-May-2021 8:35am CDT
Nearby thunderstorm, Overcast
Nearby thunderstorm, Overcast
 Wind from ESE
Wind: ESE 16 mph , 26 km/h, Gust: 23 mph , 37 km/h
Temperature: 55°F , 13°C
Dew Point: 32°F , 0°C
Humidity: 41%
Barometer: 29.87 inHg , 1011.5 hPa
Summary: Nearby Thunderstorm
Clouds: Overcast
Visibility: 10 miles , 16 km
Cloud details: Overcast 5500 ft
2021/05/08 13:35 KFET 081335Z AUTO 11014G20KT 10SM VCTS OVC055 13/00 A2987 RMK AO2 LTG DSNT N T01290003
 
KBTA - Blair Muni, Nebraska, USA
Distance from station: NNE 51mi, 82km
Updated: Sat, 08-May-2021 8:35am CDT
Overcast
Overcast
 Wind from E
Wind: E 16 mph , 26 km/h, Gust: 23 mph , 37 km/h
Temperature: 54°F , 12°C
Dew Point: 32°F , 0°C
Humidity: 44%
Barometer: 29.88 inHg , 1011.9 hPa
Clouds: Overcast
Visibility: 10 miles , 16 km
Cloud details: Overcast 6000 ft
2021/05/08 13:35 KBTA 081335Z AUTO 10014G20KT 10SM OVC060 12/00 A2988 RMK AO2 T01151004
KJYR - York, Nebraska, USA
Distance from station: W 52mi, 84km
Updated: Sat, 08-May-2021 8:35am CDT
Clear
Clear
 Wind from ESE
Wind: ESE 17 mph , 28 km/h, Gust: 26 mph , 43 km/h
Temperature: 57°F , 14°C
Dew Point: 48°F , 9°C
Humidity: 72%
Barometer: 29.78 inHg , 1008.5 hPa
Clouds: Clear
Visibility: 10 miles , 16 km
2021/05/08 13:35 KJYR 081335Z AUTO 12015G23KT 10SM CLR 14/09 A2978 RMK AO2
 
KOMA - Omaha/Eppley, Nebraska, USA
Distance from station: NE 53mi, 85km
Updated: Sat, 08-May-2021 8:52am CDT
Overcast
Overcast
 Wind from ESE
Wind: ESE 20 mph , 31 km/h, Gust: 29 mph , 46 km/h
Temperature: 54°F , 12°C
Dew Point: 30°F , -1°C
Humidity: 41%
Barometer: 29.91 inHg , 1012.9 hPa
Clouds: Overcast
Visibility: 10 miles , 16 km
Cloud details: Overcast 6000 ft
2021/05/08 13:52 KOMA 081352Z 12017G25KT 10SM OVC060 12/M01 A2991 RMK AO2 SLP125 T01221006
KOLU - Columbus Muni, Nebraska, USA
Distance from station: NW 58mi, 93km
Updated: Sat, 08-May-2021 8:56am CDT
Overcast
Overcast
 Wind from E
Wind: E 15 mph , 24 km/h, Gust: 24 mph , 39 km/h
Temperature: 55°F , 13°C
Dew Point: 34°F , 1°C
Humidity: 44%
Barometer: 29.83 inHg , 1010.2 hPa
Clouds: Overcast
Visibility: 10 miles , 16 km
Cloud details: Overcast 3400 ft
2021/05/08 13:56 KOLU 081356Z AUTO 09013G21KT 10SM OVC034 13/01 A2983 RMK AO2 SLP102 T01280006